Saskatoon John G. Diefenbaker International Airport
CYXE : now visible

Airfield :











YOU CAN JOIN US ON...

 
LOGIN :

Register | Disclaimer

   EN    FR    IT 

 









Legend :    VFR   Marginal VFR   IFR   Intensive IFR   Very Intensive IFR
Visi :
Ceiling :
>= 8 km
>= 3000ft
5 to 8 km
1000 to 3000 ft
1500m to 5 km
500 to 1000 ft
800 to 1500m
200 to 500 ft
< 800m
< 200 ft
Symbols :   Thunderstorms  Fog  Heavy snow  Heavy precipitations  Wind > 20 kt






- Airport Elevation : 1653 ft
- IATA code : YXE


CYXE - Saskatoon John G. Diefenbaker International

CURRENT METAR :
  • 130000Z 28006KT 15SM BKN060 M04/M08 A2978 RMK SC7 SLP122

EXPIRED METARs :
  • 122300Z 28008KT 15SM BKN058 M03/M07 A2976 RMK SC7 SLP117
  • 122200Z 27006KT 15SM OVC055 M03/M07 A2976 RMK SC8 SLP115

TAF TAF CYXE
Valid from the 13 at 00:00 until the 14 at 00:00 UTC


122338Z 1300/1324 28008KT P6SM BKN060
TEMPO 1300/1304 SCT060
FM130400 30005KT P6SM FEW015 SCT040
TEMPO 1304/1309 BKN015 BKN040
FM130900 30005KT P6SM FEW004 SCT040
PROB30 1309/1316 5SM BR BKN004 BKN040
FM131600 19006KT P6SM FEW010 SCT040
FM132200 19010KT P6SM FEW008 BKN030
TEMPO 1322/1324 BKN008 BKN030 RMK NXT FCST BY 130600Z



MET'MAP, your aeronautical weather chart ! - Copyright ORBIFLY December 2007 - Disclaimer

ORBIFLY MET'MAP TEAM :

Programming & Development : Alexandra Zaïnal
Concept & Development : Baudouin d'Aumeries
Co-Development & Prog : Marc-Olivier Méhu
Technical & hardware support : Manuel Goepfert

Contact : metmap@orbifly.com




SOURCES & CREDITS :

   NOAA       Earth
Advisory